sensor_id;sensor_type;location;lat;lon;timestamp;P1;durP1;ratioP1;P2;durP2;ratioP2
18651;SDS011;9455;54.302;10.124;2023-07-29T00:01:11;2.73;;;2.33;;
18651;SDS011;9455;54.302;10.124;2023-07-29T00:03:38;1.87;;;1.77;;
18651;SDS011;9455;54.302;10.124;2023-07-29T00:06:04;7.00;;;2.90;;
18651;SDS011;9455;54.302;10.124;2023-07-29T00:08:31;3.33;;;2.60;;
18651;SDS011;9455;54.302;10.124;2023-07-29T00:10:58;2.97;;;2.63;;
18651;SDS011;9455;54.302;10.124;2023-07-29T00:13:24;3.30;;;2.53;;
18651;SDS011;9455;54.302;10.124;2023-07-29T00:15:53;3.93;;;3.23;;
18651;SDS011;9455;54.302;10.124;2023-07-29T00:18:20;3.50;;;3.07;;
18651;SDS011;9455;54.302;10.124;2023-07-29T00:20:47;4.30;;;3.53;;
18651;SDS011;9455;54.302;10.124;2023-07-29T00:23:14;4.10;;;2.50;;
18651;SDS011;9455;54.302;10.124;2023-07-29T00:25:41;4.60;;;3.20;;
18651;SDS011;9455;54.302;10.124;2023-07-29T00:28:07;3.33;;;3.03;;
18651;SDS011;9455;54.302;10.124;2023-07-29T00:30:34;3.67;;;2.87;;
18651;SDS011;9455;54.302;10.124;2023-07-29T00:33:02;10.77;;;3.33;;
18651;SDS011;9455;54.302;10.124;2023-07-29T00:35:29;5.37;;;2.60;;
18651;SDS011;9455;54.302;10.124;2023-07-29T00:37:55;3.60;;;2.90;;
18651;SDS011;9455;54.302;10.124;2023-07-29T00:40:22;6.30;;;2.93;;
18651;SDS011;9455;54.302;10.124;2023-07-29T00:42:49;3.00;;;2.47;;
18651;SDS011;9455;54.302;10.124;2023-07-29T00:45:16;4.73;;;3.20;;
18651;SDS011;9455;54.302;10.124;2023-07-29T00:47:43;5.70;;;2.83;;
18651;SDS011;9455;54.302;10.124;2023-07-29T00:50:12;3.93;;;3.47;;
18651;SDS011;9455;54.302;10.124;2023-07-29T00:52:39;5.03;;;3.17;;
18651;SDS011;9455;54.302;10.124;2023-07-29T00:55:06;3.97;;;3.27;;
18651;SDS011;9455;54.302;10.124;2023-07-29T00:57:34;3.00;;;2.30;;
18651;SDS011;9455;54.302;10.124;2023-07-29T01:00:01;2.97;;;2.73;;
18651;SDS011;9455;54.302;10.124;2023-07-29T01:02:29;3.53;;;3.20;;
18651;SDS011;9455;54.302;10.124;2023-07-29T01:04:58;6.03;;;3.27;;
18651;SDS011;9455;54.302;10.124;2023-07-29T01:07:29;3.73;;;3.30;;
18651;SDS011;9455;54.302;10.124;2023-07-29T01:10:02;3.73;;;2.50;;
18651;SDS011;9455;54.302;10.124;2023-07-29T01:12:35;3.17;;;2.97;;
18651;SDS011;9455;54.302;10.124;2023-07-29T01:15:10;6.43;;;3.03;;
18651;SDS011;9455;54.302;10.124;2023-07-29T01:17:42;14.03;;;2.73;;
18651;SDS011;9455;54.302;10.124;2023-07-29T01:20:14;2.63;;;2.37;;
18651;SDS011;9455;54.302;10.124;2023-07-29T01:22:42;3.70;;;2.60;;
18651;SDS011;9455;54.302;10.124;2023-07-29T01:25:11;4.37;;;2.70;;
18651;SDS011;9455;54.302;10.124;2023-07-29T01:27:38;2.97;;;2.67;;
18651;SDS011;9455;54.302;10.124;2023-07-29T01:30:05;3.10;;;2.80;;
18651;SDS011;9455;54.302;10.124;2023-07-29T01:32:34;7.77;;;2.80;;
18651;SDS011;9455;54.302;10.124;2023-07-29T01:35:08;3.77;;;3.30;;
18651;SDS011;9455;54.302;10.124;2023-07-29T01:37:41;4.73;;;3.20;;
18651;SDS011;9455;54.302;10.124;2023-07-29T01:40:12;5.27;;;3.60;;
18651;SDS011;9455;54.302;10.124;2023-07-29T01:42:39;3.53;;;2.87;;
18651;SDS011;9455;54.302;10.124;2023-07-29T01:45:06;5.77;;;3.10;;
18651;SDS011;9455;54.302;10.124;2023-07-29T01:47:33;3.40;;;2.67;;
18651;SDS011;9455;54.302;10.124;2023-07-29T01:49:59;5.17;;;3.03;;
18651;SDS011;9455;54.302;10.124;2023-07-29T01:52:26;5.80;;;3.97;;
18651;SDS011;9455;54.302;10.124;2023-07-29T01:54:52;3.87;;;2.90;;
18651;SDS011;9455;54.302;10.124;2023-07-29T01:57:20;4.73;;;3.10;;
18651;SDS011;9455;54.302;10.124;2023-07-29T01:59:47;8.10;;;3.13;;
18651;SDS011;9455;54.302;10.124;2023-07-29T02:02:13;3.17;;;2.97;;
18651;SDS011;9455;54.302;10.124;2023-07-29T02:04:40;7.77;;;3.43;;
18651;SDS011;9455;54.302;10.124;2023-07-29T02:07:07;5.57;;;3.37;;
18651;SDS011;9455;54.302;10.124;2023-07-29T02:09:33;3.87;;;3.30;;
18651;SDS011;9455;54.302;10.124;2023-07-29T02:12:00;5.80;;;4.07;;
18651;SDS011;9455;54.302;10.124;2023-07-29T02:14:28;4.63;;;3.53;;
18651;SDS011;9455;54.302;10.124;2023-07-29T02:16:55;4.83;;;3.40;;
18651;SDS011;9455;54.302;10.124;2023-07-29T02:19:21;10.23;;;3.67;;
18651;SDS011;9455;54.302;10.124;2023-07-29T02:21:48;8.10;;;4.17;;
18651;SDS011;9455;54.302;10.124;2023-07-29T02:24:14;7.10;;;3.07;;
18651;SDS011;9455;54.302;10.124;2023-07-29T02:26:41;5.80;;;3.67;;
18651;SDS011;9455;54.302;10.124;2023-07-29T02:29:08;8.23;;;3.93;;
18651;SDS011;9455;54.302;10.124;2023-07-29T02:31:36;9.27;;;3.77;;
18651;SDS011;9455;54.302;10.124;2023-07-29T02:34:03;6.57;;;4.10;;
18651;SDS011;9455;54.302;10.124;2023-07-29T02:36:30;6.00;;;4.17;;
18651;SDS011;9455;54.302;10.124;2023-07-29T02:38:56;9.87;;;4.47;;
18651;SDS011;9455;54.302;10.124;2023-07-29T02:41:23;9.70;;;4.00;;
18651;SDS011;9455;54.302;10.124;2023-07-29T02:43:49;7.23;;;4.37;;
18651;SDS011;9455;54.302;10.124;2023-07-29T02:46:16;5.37;;;3.43;;
18651;SDS011;9455;54.302;10.124;2023-07-29T02:48:45;5.10;;;3.50;;
18651;SDS011;9455;54.302;10.124;2023-07-29T02:51:12;4.50;;;3.20;;
18651;SDS011;9455;54.302;10.124;2023-07-29T02:53:38;4.77;;;3.50;;
18651;SDS011;9455;54.302;10.124;2023-07-29T02:56:05;7.20;;;4.03;;
18651;SDS011;9455;54.302;10.124;2023-07-29T02:58:34;7.60;;;4.27;;
18651;SDS011;9455;54.302;10.124;2023-07-29T03:01:00;4.00;;;3.07;;
18651;SDS011;9455;54.302;10.124;2023-07-29T03:03:28;3.77;;;3.03;;
18651;SDS011;9455;54.302;10.124;2023-07-29T03:05:58;6.97;;;3.80;;
18651;SDS011;9455;54.302;10.124;2023-07-29T03:08:26;3.33;;;2.97;;
18651;SDS011;9455;54.302;10.124;2023-07-29T03:10:52;6.13;;;4.00;;
18651;SDS011;9455;54.302;10.124;2023-07-29T03:13:19;5.87;;;3.33;;
18651;SDS011;9455;54.302;10.124;2023-07-29T03:15:46;7.63;;;4.10;;
18651;SDS011;9455;54.302;10.124;2023-07-29T03:18:12;4.90;;;3.80;;
18651;SDS011;9455;54.302;10.124;2023-07-29T03:20:39;6.37;;;4.40;;
18651;SDS011;9455;54.302;10.124;2023-07-29T03:23:07;9.20;;;3.97;;
18651;SDS011;9455;54.302;10.124;2023-07-29T03:25:33;9.53;;;4.20;;
18651;SDS011;9455;54.302;10.124;2023-07-29T03:28:00;5.80;;;4.03;;
18651;SDS011;9455;54.302;10.124;2023-07-29T03:30:27;9.23;;;4.17;;
18651;SDS011;9455;54.302;10.124;2023-07-29T03:32:53;6.63;;;3.93;;
18651;SDS011;9455;54.302;10.124;2023-07-29T03:35:20;9.53;;;3.97;;
18651;SDS011;9455;54.302;10.124;2023-07-29T03:37:46;8.27;;;4.10;;
18651;SDS011;9455;54.302;10.124;2023-07-29T03:40:14;8.50;;;4.40;;
18651;SDS011;9455;54.302;10.124;2023-07-29T03:42:41;10.60;;;4.60;;
18651;SDS011;9455;54.302;10.124;2023-07-29T03:45:08;9.43;;;4.10;;
18651;SDS011;9455;54.302;10.124;2023-07-29T03:47:35;6.30;;;4.43;;
18651;SDS011;9455;54.302;10.124;2023-07-29T03:50:01;9.93;;;4.87;;
18651;SDS011;9455;54.302;10.124;2023-07-29T03:52:29;9.40;;;4.93;;
18651;SDS011;9455;54.302;10.124;2023-07-29T03:54:56;9.97;;;5.03;;
18651;SDS011;9455;54.302;10.124;2023-07-29T03:57:24;8.00;;;4.90;;
18651;SDS011;9455;54.302;10.124;2023-07-29T03:59:50;17.50;;;5.80;;
18651;SDS011;9455;54.302;10.124;2023-07-29T04:02:17;9.63;;;4.87;;
18651;SDS011;9455;54.302;10.124;2023-07-29T04:04:43;10.13;;;4.17;;
18651;SDS011;9455;54.302;10.124;2023-07-29T04:07:12;15.50;;;5.53;;
18651;SDS011;9455;54.302;10.124;2023-07-29T04:09:39;7.00;;;4.40;;
18651;SDS011;9455;54.302;10.124;2023-07-29T04:12:06;9.50;;;4.90;;
18651;SDS011;9455;54.302;10.124;2023-07-29T04:14:34;9.57;;;5.00;;
18651;SDS011;9455;54.302;10.124;2023-07-29T04:17:01;7.13;;;4.70;;
18651;SDS011;9455;54.302;10.124;2023-07-29T04:19:27;7.77;;;4.93;;
18651;SDS011;9455;54.302;10.124;2023-07-29T04:21:54;13.10;;;4.90;;
18651;SDS011;9455;54.302;10.124;2023-07-29T04:24:20;9.73;;;5.30;;
18651;SDS011;9455;54.302;10.124;2023-07-29T04:26:48;11.90;;;5.33;;
18651;SDS011;9455;54.302;10.124;2023-07-29T04:29:14;17.60;;;7.47;;
18651;SDS011;9455;54.302;10.124;2023-07-29T04:31:42;14.23;;;6.17;;
18651;SDS011;9455;54.302;10.124;2023-07-29T04:34:09;14.77;;;6.27;;
18651;SDS011;9455;54.302;10.124;2023-07-29T04:36:35;20.57;;;7.10;;
18651;SDS011;9455;54.302;10.124;2023-07-29T04:39:02;10.23;;;5.50;;
18651;SDS011;9455;54.302;10.124;2023-07-29T04:41:29;11.07;;;4.83;;
18651;SDS011;9455;54.302;10.124;2023-07-29T04:43:55;7.57;;;3.70;;
18651;SDS011;9455;54.302;10.124;2023-07-29T04:46:22;4.07;;;3.23;;
18651;SDS011;9455;54.302;10.124;2023-07-29T04:48:50;3.73;;;3.10;;
18651;SDS011;9455;54.302;10.124;2023-07-29T04:51:16;6.63;;;3.70;;
18651;SDS011;9455;54.302;10.124;2023-07-29T04:53:43;8.73;;;3.10;;
18651;SDS011;9455;54.302;10.124;2023-07-29T04:56:09;4.47;;;3.27;;
18651;SDS011;9455;54.302;10.124;2023-07-29T04:58:36;3.17;;;2.73;;
18651;SDS011;9455;54.302;10.124;2023-07-29T05:01:03;6.53;;;3.80;;
18651;SDS011;9455;54.302;10.124;2023-07-29T05:03:30;4.07;;;3.67;;
18651;SDS011;9455;54.302;10.124;2023-07-29T05:05:58;5.10;;;3.00;;
18651;SDS011;9455;54.302;10.124;2023-07-29T05:08:26;5.97;;;4.40;;
18651;SDS011;9455;54.302;10.124;2023-07-29T05:10:53;5.70;;;4.10;;
18651;SDS011;9455;54.302;10.124;2023-07-29T05:13:20;4.03;;;3.63;;
18651;SDS011;9455;54.302;10.124;2023-07-29T05:15:46;6.60;;;4.53;;
18651;SDS011;9455;54.302;10.124;2023-07-29T05:18:14;10.57;;;4.27;;
18651;SDS011;9455;54.302;10.124;2023-07-29T05:20:41;6.20;;;3.77;;
18651;SDS011;9455;54.302;10.124;2023-07-29T05:23:09;8.67;;;4.13;;
18651;SDS011;9455;54.302;10.124;2023-07-29T05:25:35;6.63;;;3.83;;
18651;SDS011;9455;54.302;10.124;2023-07-29T05:28:02;7.67;;;4.57;;
18651;SDS011;9455;54.302;10.124;2023-07-29T05:30:29;9.40;;;4.80;;
18651;SDS011;9455;54.302;10.124;2023-07-29T05:32:56;6.87;;;4.20;;
18651;SDS011;9455;54.302;10.124;2023-07-29T05:35:23;6.87;;;4.23;;
18651;SDS011;9455;54.302;10.124;2023-07-29T05:37:50;9.63;;;5.47;;
18651;SDS011;9455;54.302;10.124;2023-07-29T05:40:18;10.20;;;4.57;;
18651;SDS011;9455;54.302;10.124;2023-07-29T05:42:45;8.67;;;5.13;;
18651;SDS011;9455;54.302;10.124;2023-07-29T05:45:13;11.63;;;5.90;;
18651;SDS011;9455;54.302;10.124;2023-07-29T05:47:39;5.80;;;4.23;;
18651;SDS011;9455;54.302;10.124;2023-07-29T05:50:06;11.70;;;4.80;;
18651;SDS011;9455;54.302;10.124;2023-07-29T05:52:34;10.43;;;4.63;;
18651;SDS011;9455;54.302;10.124;2023-07-29T05:55:00;11.00;;;6.10;;
18651;SDS011;9455;54.302;10.124;2023-07-29T05:57:28;6.40;;;4.20;;
18651;SDS011;9455;54.302;10.124;2023-07-29T05:59:55;12.17;;;5.20;;
18651;SDS011;9455;54.302;10.124;2023-07-29T06:02:22;8.47;;;5.33;;
18651;SDS011;9455;54.302;10.124;2023-07-29T06:04:48;10.23;;;5.30;;
18651;SDS011;9455;54.302;10.124;2023-07-29T06:07:15;9.00;;;4.47;;
18651;SDS011;9455;54.302;10.124;2023-07-29T06:09:41;6.33;;;3.53;;
18651;SDS011;9455;54.302;10.124;2023-07-29T06:12:08;7.80;;;3.77;;
18651;SDS011;9455;54.302;10.124;2023-07-29T06:14:36;5.07;;;3.57;;
18651;SDS011;9455;54.302;10.124;2023-07-29T06:17:03;4.23;;;3.50;;
18651;SDS011;9455;54.302;10.124;2023-07-29T06:19:30;5.17;;;3.80;;
18651;SDS011;9455;54.302;10.124;2023-07-29T06:21:56;3.57;;;3.23;;
18651;SDS011;9455;54.302;10.124;2023-07-29T06:24:23;5.07;;;3.60;;
18651;SDS011;9455;54.302;10.124;2023-07-29T06:26:49;4.40;;;4.00;;
18651;SDS011;9455;54.302;10.124;2023-07-29T06:29:16;3.37;;;3.07;;
18651;SDS011;9455;54.302;10.124;2023-07-29T06:31:44;4.70;;;2.90;;
18651;SDS011;9455;54.302;10.124;2023-07-29T06:34:10;4.83;;;3.57;;
18651;SDS011;9455;54.302;10.124;2023-07-29T06:36:37;4.47;;;3.00;;
18651;SDS011;9455;54.302;10.124;2023-07-29T06:39:03;3.70;;;3.23;;
18651;SDS011;9455;54.302;10.124;2023-07-29T06:41:30;4.93;;;2.80;;
18651;SDS011;9455;54.302;10.124;2023-07-29T06:43:56;6.30;;;3.57;;
18651;SDS011;9455;54.302;10.124;2023-07-29T06:46:23;5.57;;;4.33;;
18651;SDS011;9455;54.302;10.124;2023-07-29T06:48:51;7.37;;;4.40;;
18651;SDS011;9455;54.302;10.124;2023-07-29T06:51:17;4.40;;;3.10;;
18651;SDS011;9455;54.302;10.124;2023-07-29T06:53:44;5.53;;;3.73;;
18651;SDS011;9455;54.302;10.124;2023-07-29T06:56:11;6.50;;;4.73;;
18651;SDS011;9455;54.302;10.124;2023-07-29T06:58:38;8.73;;;5.13;;
18651;SDS011;9455;54.302;10.124;2023-07-29T07:01:04;6.07;;;4.63;;
18651;SDS011;9455;54.302;10.124;2023-07-29T07:03:31;6.53;;;4.73;;
18651;SDS011;9455;54.302;10.124;2023-07-29T07:05:59;7.13;;;5.10;;
18651;SDS011;9455;54.302;10.124;2023-07-29T07:08:25;13.87;;;7.67;;
18651;SDS011;9455;54.302;10.124;2023-07-29T07:10:52;11.93;;;6.80;;
18651;SDS011;9455;54.302;10.124;2023-07-29T07:13:18;14.07;;;7.43;;
18651;SDS011;9455;54.302;10.124;2023-07-29T07:15:45;14.43;;;7.30;;
18651;SDS011;9455;54.302;10.124;2023-07-29T07:18:11;10.57;;;6.30;;
18651;SDS011;9455;54.302;10.124;2023-07-29T07:20:38;13.97;;;7.37;;
18651;SDS011;9455;54.302;10.124;2023-07-29T07:23:06;15.27;;;7.77;;
18651;SDS011;9455;54.302;10.124;2023-07-29T07:25:36;17.73;;;7.07;;
18651;SDS011;9455;54.302;10.124;2023-07-29T07:28:03;12.97;;;6.93;;
18651;SDS011;9455;54.302;10.124;2023-07-29T07:30:29;14.83;;;7.90;;
18651;SDS011;9455;54.302;10.124;2023-07-29T07:32:56;13.30;;;8.43;;
18651;SDS011;9455;54.302;10.124;2023-07-29T07:35:23;14.57;;;8.17;;
18651;SDS011;9455;54.302;10.124;2023-07-29T07:37:49;15.30;;;6.73;;
18651;SDS011;9455;54.302;10.124;2023-07-29T07:40:17;13.60;;;8.03;;
18651;SDS011;9455;54.302;10.124;2023-07-29T07:42:44;13.63;;;6.17;;
18651;SDS011;9455;54.302;10.124;2023-07-29T07:45:10;14.17;;;7.20;;
18651;SDS011;9455;54.302;10.124;2023-07-29T07:47:37;11.83;;;6.70;;
18651;SDS011;9455;54.302;10.124;2023-07-29T07:50:03;11.47;;;6.97;;
18651;SDS011;9455;54.302;10.124;2023-07-29T07:52:30;10.23;;;6.47;;
18651;SDS011;9455;54.302;10.124;2023-07-29T07:54:57;7.77;;;6.17;;
18651;SDS011;9455;54.302;10.124;2023-07-29T07:57:25;11.70;;;6.37;;
18651;SDS011;9455;54.302;10.124;2023-07-29T07:59:51;9.40;;;6.57;;
18651;SDS011;9455;54.302;10.124;2023-07-29T08:02:18;12.47;;;6.10;;
18651;SDS011;9455;54.302;10.124;2023-07-29T08:04:45;7.83;;;5.57;;
18651;SDS011;9455;54.302;10.124;2023-07-29T08:07:12;8.87;;;5.33;;
18651;SDS011;9455;54.302;10.124;2023-07-29T08:09:38;14.90;;;6.47;;
18651;SDS011;9455;54.302;10.124;2023-07-29T08:12:05;6.73;;;5.10;;
18651;SDS011;9455;54.302;10.124;2023-07-29T08:14:33;10.70;;;5.33;;
18651;SDS011;9455;54.302;10.124;2023-07-29T08:17:00;9.30;;;5.40;;
18651;SDS011;9455;54.302;10.124;2023-07-29T08:19:26;8.33;;;5.50;;
18651;SDS011;9455;54.302;10.124;2023-07-29T08:21:53;9.63;;;5.80;;
18651;SDS011;9455;54.302;10.124;2023-07-29T08:24:20;9.57;;;4.63;;
18651;SDS011;9455;54.302;10.124;2023-07-29T08:26:46;7.27;;;5.47;;
18651;SDS011;9455;54.302;10.124;2023-07-29T08:29:13;7.17;;;5.23;;
18651;SDS011;9455;54.302;10.124;2023-07-29T08:31:41;8.53;;;4.90;;
18651;SDS011;9455;54.302;10.124;2023-07-29T08:34:07;6.63;;;4.50;;
18651;SDS011;9455;54.302;10.124;2023-07-29T08:36:34;10.17;;;4.77;;
18651;SDS011;9455;54.302;10.124;2023-07-29T08:39:00;7.07;;;5.03;;
18651;SDS011;9455;54.302;10.124;2023-07-29T08:41:29;7.97;;;4.57;;
18651;SDS011;9455;54.302;10.124;2023-07-29T08:44:03;10.33;;;5.60;;
18651;SDS011;9455;54.302;10.124;2023-07-29T08:46:34;10.80;;;5.57;;
18651;SDS011;9455;54.302;10.124;2023-07-29T08:49:03;5.73;;;4.40;;
18651;SDS011;9455;54.302;10.124;2023-07-29T08:51:29;10.23;;;5.33;;
18651;SDS011;9455;54.302;10.124;2023-07-29T08:53:58;7.93;;;5.40;;
18651;SDS011;9455;54.302;10.124;2023-07-29T08:56:25;6.23;;;4.17;;
18651;SDS011;9455;54.302;10.124;2023-07-29T08:58:53;6.53;;;4.70;;
18651;SDS011;9455;54.302;10.124;2023-07-29T09:01:20;7.43;;;4.57;;
18651;SDS011;9455;54.302;10.124;2023-07-29T09:03:47;8.87;;;4.67;;
18651;SDS011;9455;54.302;10.124;2023-07-29T09:06:15;7.80;;;4.43;;
18651;SDS011;9455;54.302;10.124;2023-07-29T09:08:43;8.87;;;4.50;;
18651;SDS011;9455;54.302;10.124;2023-07-29T09:11:12;9.17;;;4.43;;
18651;SDS011;9455;54.302;10.124;2023-07-29T09:13:41;8.47;;;4.20;;
18651;SDS011;9455;54.302;10.124;2023-07-29T09:16:07;7.43;;;4.03;;
18651;SDS011;9455;54.302;10.124;2023-07-29T09:18:35;14.70;;;4.27;;
18651;SDS011;9455;54.302;10.124;2023-07-29T09:21:02;6.23;;;4.40;;
18651;SDS011;9455;54.302;10.124;2023-07-29T09:23:34;6.30;;;4.13;;
18651;SDS011;9455;54.302;10.124;2023-07-29T09:26:05;9.60;;;4.43;;
18651;SDS011;9455;54.302;10.124;2023-07-29T09:28:33;4.97;;;4.00;;
18651;SDS011;9455;54.302;10.124;2023-07-29T09:31:00;9.40;;;3.90;;
18651;SDS011;9455;54.302;10.124;2023-07-29T09:33:27;3.90;;;3.20;;
18651;SDS011;9455;54.302;10.124;2023-07-29T09:35:54;5.60;;;3.53;;
18651;SDS011;9455;54.302;10.124;2023-07-29T09:38:25;5.40;;;3.50;;
18651;SDS011;9455;54.302;10.124;2023-07-29T09:40:55;3.43;;;3.13;;
18651;SDS011;9455;54.302;10.124;2023-07-29T09:43:24;3.90;;;3.53;;
18651;SDS011;9455;54.302;10.124;2023-07-29T09:45:52;3.97;;;3.50;;
18651;SDS011;9455;54.302;10.124;2023-07-29T09:48:19;5.63;;;3.47;;
18651;SDS011;9455;54.302;10.124;2023-07-29T09:50:48;5.20;;;3.20;;
18651;SDS011;9455;54.302;10.124;2023-07-29T09:53:15;2.77;;;2.57;;
18651;SDS011;9455;54.302;10.124;2023-07-29T09:55:45;3.80;;;3.43;;
18651;SDS011;9455;54.302;10.124;2023-07-29T09:58:14;3.53;;;3.23;;
18651;SDS011;9455;54.302;10.124;2023-07-29T10:00:40;4.33;;;3.20;;
18651;SDS011;9455;54.302;10.124;2023-07-29T10:03:07;3.13;;;2.93;;
18651;SDS011;9455;54.302;10.124;2023-07-29T10:05:34;4.03;;;3.20;;
18651;SDS011;9455;54.302;10.124;2023-07-29T10:08:01;2.83;;;2.63;;
18651;SDS011;9455;54.302;10.124;2023-07-29T10:10:28;2.97;;;2.43;;
18651;SDS011;9455;54.302;10.124;2023-07-29T10:12:56;2.70;;;2.50;;
18651;SDS011;9455;54.302;10.124;2023-07-29T10:15:24;2.97;;;2.77;;
18651;SDS011;9455;54.302;10.124;2023-07-29T10:17:51;3.20;;;2.90;;
18651;SDS011;9455;54.302;10.124;2023-07-29T10:20:19;6.07;;;2.73;;
18651;SDS011;9455;54.302;10.124;2023-07-29T10:22:46;3.37;;;2.47;;
18651;SDS011;9455;54.302;10.124;2023-07-29T10:25:15;2.90;;;2.63;;
18651;SDS011;9455;54.302;10.124;2023-07-29T10:27:43;2.73;;;2.53;;
18651;SDS011;9455;54.302;10.124;2023-07-29T10:30:13;2.40;;;2.27;;
18651;SDS011;9455;54.302;10.124;2023-07-29T10:32:43;3.00;;;2.87;;
18651;SDS011;9455;54.302;10.124;2023-07-29T10:35:10;2.63;;;2.53;;
18651;SDS011;9455;54.302;10.124;2023-07-29T10:37:37;2.57;;;2.37;;
18651;SDS011;9455;54.302;10.124;2023-07-29T10:40:06;2.00;;;1.90;;
18651;SDS011;9455;54.302;10.124;2023-07-29T10:42:33;3.10;;;2.90;;
18651;SDS011;9455;54.302;10.124;2023-07-29T10:45:00;2.37;;;2.27;;
18651;SDS011;9455;54.302;10.124;2023-07-29T10:47:44;2.63;;;2.47;;
18651;SDS011;9455;54.302;10.124;2023-07-29T10:50:16;2.97;;;2.67;;
18651;SDS011;9455;54.302;10.124;2023-07-29T10:52:44;2.70;;;2.30;;
18651;SDS011;9455;54.302;10.124;2023-07-29T10:55:23;3.90;;;2.10;;
18651;SDS011;9455;54.302;10.124;2023-07-29T10:57:51;2.10;;;1.93;;
18651;SDS011;9455;54.302;10.124;2023-07-29T11:00:19;1.70;;;1.60;;
18651;SDS011;9455;54.302;10.124;2023-07-29T11:02:56;1.47;;;1.47;;
18651;SDS011;9455;54.302;10.124;2023-07-29T11:05:26;1.40;;;1.40;;
18651;SDS011;9455;54.302;10.124;2023-07-29T11:07:52;1.50;;;1.40;;
18651;SDS011;9455;54.302;10.124;2023-07-29T11:10:19;1.67;;;1.57;;
18651;SDS011;9455;54.302;10.124;2023-07-29T11:12:47;1.97;;;1.40;;
18651;SDS011;9455;54.302;10.124;2023-07-29T11:15:17;1.60;;;1.60;;
18651;SDS011;9455;54.302;10.124;2023-07-29T11:17:46;1.63;;;1.63;;
18651;SDS011;9455;54.302;10.124;2023-07-29T11:20:15;1.87;;;1.77;;
18651;SDS011;9455;54.302;10.124;2023-07-29T11:22:43;1.47;;;1.47;;
18651;SDS011;9455;54.302;10.124;2023-07-29T11:25:10;1.20;;;1.20;;
18651;SDS011;9455;54.302;10.124;2023-07-29T11:27:38;3.20;;;1.40;;
18651;SDS011;9455;54.302;10.124;2023-07-29T11:30:06;1.23;;;1.20;;
18651;SDS011;9455;54.302;10.124;2023-07-29T11:32:34;1.50;;;1.40;;
18651;SDS011;9455;54.302;10.124;2023-07-29T11:35:02;1.40;;;1.30;;
18651;SDS011;9455;54.302;10.124;2023-07-29T11:37:32;1.43;;;1.33;;
18651;SDS011;9455;54.302;10.124;2023-07-29T11:39:59;4.63;;;1.53;;
18651;SDS011;9455;54.302;10.124;2023-07-29T11:42:26;1.53;;;1.43;;
18651;SDS011;9455;54.302;10.124;2023-07-29T11:44:55;1.43;;;1.33;;
18651;SDS011;9455;54.302;10.124;2023-07-29T11:47:22;1.40;;;1.30;;
18651;SDS011;9455;54.302;10.124;2023-07-29T11:49:49;1.00;;;1.00;;
18651;SDS011;9455;54.302;10.124;2023-07-29T11:52:16;1.20;;;1.20;;
18651;SDS011;9455;54.302;10.124;2023-07-29T11:54:46;1.13;;;1.10;;
18651;SDS011;9455;54.302;10.124;2023-07-29T11:57:14;3.37;;;1.23;;
18651;SDS011;9455;54.302;10.124;2023-07-29T11:59:40;1.20;;;1.10;;
18651;SDS011;9455;54.302;10.124;2023-07-29T12:02:08;1.10;;;1.10;;
18651;SDS011;9455;54.302;10.124;2023-07-29T12:04:37;1.10;;;1.10;;
18651;SDS011;9455;54.302;10.124;2023-07-29T12:07:05;3.50;;;1.40;;
18651;SDS011;9455;54.302;10.124;2023-07-29T12:09:31;1.40;;;1.40;;
18651;SDS011;9455;54.302;10.124;2023-07-29T12:12:00;1.60;;;1.10;;
18651;SDS011;9455;54.302;10.124;2023-07-29T12:14:28;1.03;;;1.03;;
18651;SDS011;9455;54.302;10.124;2023-07-29T12:16:55;1.50;;;1.40;;
18651;SDS011;9455;54.302;10.124;2023-07-29T12:19:21;1.20;;;1.10;;
18651;SDS011;9455;54.302;10.124;2023-07-29T12:21:50;0.83;;;0.83;;
18651;SDS011;9455;54.302;10.124;2023-07-29T12:24:16;1.10;;;1.00;;
18651;SDS011;9455;54.302;10.124;2023-07-29T12:26:43;1.20;;;0.90;;
18651;SDS011;9455;54.302;10.124;2023-07-29T12:29:12;0.97;;;0.97;;
18651;SDS011;9455;54.302;10.124;2023-07-29T12:31:39;0.90;;;0.90;;
18651;SDS011;9455;54.302;10.124;2023-07-29T12:34:06;0.83;;;0.83;;
18651;SDS011;9455;54.302;10.124;2023-07-29T12:36:42;1.00;;;1.00;;
18651;SDS011;9455;54.302;10.124;2023-07-29T12:39:16;0.97;;;0.97;;
18651;SDS011;9455;54.302;10.124;2023-07-29T12:41:44;1.10;;;1.10;;
18651;SDS011;9455;54.302;10.124;2023-07-29T12:44:10;1.23;;;1.10;;
18651;SDS011;9455;54.302;10.124;2023-07-29T12:46:38;2.83;;;0.97;;
18651;SDS011;9455;54.302;10.124;2023-07-29T12:49:05;5.20;;;1.10;;
18651;SDS011;9455;54.302;10.124;2023-07-29T12:51:32;1.33;;;1.00;;
18651;SDS011;9455;54.302;10.124;2023-07-29T12:53:59;3.40;;;1.20;;
18651;SDS011;9455;54.302;10.124;2023-07-29T12:56:26;1.07;;;1.07;;
18651;SDS011;9455;54.302;10.124;2023-07-29T12:58:52;1.10;;;1.07;;
18651;SDS011;9455;54.302;10.124;2023-07-29T13:01:20;1.43;;;1.43;;
18651;SDS011;9455;54.302;10.124;2023-07-29T13:03:47;1.07;;;1.07;;
18651;SDS011;9455;54.302;10.124;2023-07-29T13:06:14;1.10;;;1.00;;
18651;SDS011;9455;54.302;10.124;2023-07-29T13:08:41;1.50;;;1.03;;
18651;SDS011;9455;54.302;10.124;2023-07-29T13:11:08;1.27;;;1.27;;
18651;SDS011;9455;54.302;10.124;2023-07-29T13:13:35;0.97;;;0.97;;
18651;SDS011;9455;54.302;10.124;2023-07-29T13:16:02;1.50;;;1.40;;
18651;SDS011;9455;54.302;10.124;2023-07-29T13:18:30;1.20;;;1.20;;
18651;SDS011;9455;54.302;10.124;2023-07-29T13:20:56;1.50;;;1.50;;
18651;SDS011;9455;54.302;10.124;2023-07-29T13:23:23;1.80;;;1.70;;
18651;SDS011;9455;54.302;10.124;2023-07-29T13:25:50;1.80;;;1.17;;
18651;SDS011;9455;54.302;10.124;2023-07-29T13:28:17;1.70;;;1.60;;
18651;SDS011;9455;54.302;10.124;2023-07-29T13:30:44;5.53;;;1.70;;
18651;SDS011;9455;54.302;10.124;2023-07-29T13:33:10;3.60;;;1.70;;
18651;SDS011;9455;54.302;10.124;2023-07-29T13:35:38;2.13;;;1.73;;
18651;SDS011;9455;54.302;10.124;2023-07-29T13:38:05;4.03;;;1.93;;
18651;SDS011;9455;54.302;10.124;2023-07-29T13:40:32;1.80;;;1.70;;
18651;SDS011;9455;54.302;10.124;2023-07-29T13:42:58;1.30;;;1.30;;
18651;SDS011;9455;54.302;10.124;2023-07-29T13:45:25;1.57;;;1.47;;
18651;SDS011;9455;54.302;10.124;2023-07-29T13:47:51;2.03;;;1.40;;
18651;SDS011;9455;54.302;10.124;2023-07-29T13:50:18;1.30;;;1.30;;
18651;SDS011;9455;54.302;10.124;2023-07-29T13:52:46;1.73;;;1.60;;
18651;SDS011;9455;54.302;10.124;2023-07-29T13:55:13;1.60;;;1.50;;
18651;SDS011;9455;54.302;10.124;2023-07-29T13:57:39;1.10;;;1.10;;
18651;SDS011;9455;54.302;10.124;2023-07-29T14:00:06;1.33;;;1.20;;
18651;SDS011;9455;54.302;10.124;2023-07-29T14:02:33;2.53;;;1.20;;
18651;SDS011;9455;54.302;10.124;2023-07-29T14:05:00;1.00;;;1.00;;
18651;SDS011;9455;54.302;10.124;2023-07-29T14:07:26;1.23;;;1.23;;
18651;SDS011;9455;54.302;10.124;2023-07-29T14:09:54;3.73;;;1.43;;
18651;SDS011;9455;54.302;10.124;2023-07-29T14:12:21;1.50;;;1.20;;
18651;SDS011;9455;54.302;10.124;2023-07-29T14:14:47;1.00;;;1.00;;
18651;SDS011;9455;54.302;10.124;2023-07-29T14:17:14;3.23;;;1.90;;
18651;SDS011;9455;54.302;10.124;2023-07-29T14:19:40;1.60;;;1.50;;
18651;SDS011;9455;54.302;10.124;2023-07-29T14:22:07;2.00;;;0.90;;
18651;SDS011;9455;54.302;10.124;2023-07-29T14:24:34;2.27;;;1.00;;
18651;SDS011;9455;54.302;10.124;2023-07-29T14:27:01;1.17;;;1.07;;
18651;SDS011;9455;54.302;10.124;2023-07-29T14:29:29;3.23;;;1.13;;
18651;SDS011;9455;54.302;10.124;2023-07-29T14:31:55;1.20;;;1.20;;
18651;SDS011;9455;54.302;10.124;2023-07-29T14:34:22;1.07;;;1.07;;
18651;SDS011;9455;54.302;10.124;2023-07-29T14:36:48;4.60;;;1.27;;
18651;SDS011;9455;54.302;10.124;2023-07-29T14:39:15;1.37;;;1.03;;
18651;SDS011;9455;54.302;10.124;2023-07-29T14:41:42;4.67;;;1.57;;
18651;SDS011;9455;54.302;10.124;2023-07-29T14:44:09;1.33;;;1.33;;
18651;SDS011;9455;54.302;10.124;2023-07-29T14:46:36;1.43;;;1.20;;